DW8266 Weather Reports


Display with metric or nautical units.
time (UTC)temp
F
wind
direction
speed
MPH
gust
MPH
rain 1hr
in
rain 24hr
in
rain mn
in
humidity
%
barometer
mb
20191016122257 77 286 0.0 3.0 0.00 0.23 0.23 96 1011.7
20191016121739 77 288 0.0 4.0 0.00 0.23 0.23 96 1011.8
20191016121621 76 288 0.0 3.0 0.00 0.23 0.23 96 1012.7
20191016121242 77 289 1.0 4.0 0.00 0.23 0.23 96 1011.8
20191016120717 77 288 1.0 4.0 0.00 0.23 0.23 96 1011.8
20191016120214 77 288 1.0 6.0 0.00 0.23 0.23 96 1011.8
20191016120048 76 288 1.0 6.0 0.00 0.23 0.23 96 1012.7
20191016115727 77 298 2.0 5.0 0.01 0.23 0.23 96 1011.6
20191016115215 77 300 1.0 6.0 0.01 0.23 0.23 96 1011.6
20191016114723 77 281 1.0 3.0 0.01 0.23 0.23 96 1011.5
20191016114626 77 279 0.0 3.0 0.01 0.23 0.23 96 1012.5
20191016114211 77 279 0.0 3.0 0.01 0.23 0.23 96 1011.5
20191016113721 77 275 1.0 3.0 0.01 0.23 0.23 96 1011.4
20191016113213 77 274 1.0 3.0 0.01 0.23 0.23 96 1011.4
20191016113014 77 273 1.0 3.0 0.01 0.23 0.23 96 1012.3
20191016112719 77 273 0.0 4.0 0.01 0.23 0.23 97 1011.4
20191016112203 77 273 1.0 4.0 0.03 0.23 0.23 96 1011.3
20191016111711 77 272 1.0 4.0 0.14 0.23 0.23 97 1011.3
20191016111552 77 271 0.0 4.0 0.17 0.23 0.23 97 1012.3
20191016111149 77 271 0.0 4.0 0.22 0.23 0.23 96 1011.4
20191016110650 77 246 0.0 2.0 0.23 0.23 0.23 96 1011.4
20191016110154 77 246 0.0 1.0 0.23 0.23 0.23 96 1011.5
20191016110037 77 246 0.0 2.0 0.23 0.23 0.23 96 1012.4
20191016105644 77 246 0.0 2.0 0.22 0.22 0.22 96 1011.4
20191016105151 77 246 0.0 2.0 0.22 0.22 0.22 96 1011.4
20191016104626 77 246 0.0 1.0 0.22 0.22 0.22 96 1012.2
20191016104617 77 246 0.0 3.0 0.22 0.22 0.22 96 1011.3
20191016104118 77 246 0.0 4.0 0.22 0.22 0.22 96 1011.4
20191016103626 77 245 1.0 4.0 0.22 0.22 0.22 95 1011.2
20191016103116 77 245 2.0 6.0 0.22 0.22 0.22 95 1011.0
20191016103035 77 245 0.0 6.0 0.22 0.22 0.22 95 1011.9
20191016102617 77 235 3.0 7.0 0.22 0.22 0.22 95 1011.0
20191016102057 78 215 2.0 6.0 0.18 0.18 0.19 95 1011.0
20191016101548 78 292 1.0 5.0 0.06 0.06 0.06 95 1011.1
20191016101526 78 292 1.0 5.0 0.04 0.04 0.04 95 1012.0
20191016101056 78 292 1.0 5.0 0.01 0.01 0.01 94 1011.0
20191016100548 78 284 1.0 3.0 0.00 0.00 0.00 94 1010.9
20191016100105 77 284 0.0 2.0 0.00 0.00 0.00 94 1011.6
20191016100057 78 284 0.0 2.0 0.00 0.00 0.00 94 1010.7
20191016095547 78 284 1.0 3.0 0.00 0.00 0.00 94 1010.7
20191016095050 78 284 1.0 3.0 0.00 0.00 0.00 95 1010.8
20191016094627 77 279 0.0 3.0 0.00 0.00 0.00 95 1011.5
20191016094531 78 279 0.0 3.0 0.00 0.00 0.00 94 1010.6
20191016094024 78 272 0.0 3.0 0.00 0.00 0.00 94 1010.6
20191016093527 78 271 0.0 3.0 0.00 0.00 0.00 94 1010.6
20191016093235 77 271 0.0 3.0 0.00 0.00 0.00 94 1011.5
20191016093021 78 271 1.0 3.0 0.00 0.00 0.00 94 1010.6
20191016092508 78 266 1.0 3.0 0.00 0.00 0.00 94 1010.7
20191016092016 78 265 0.0 3.0 0.00 0.00 0.00 94 1010.6
20191016091528 77 213 0.0 0.0 0.00 0.00 0.00 94 1011.4
20191016091459 78 213 0.0 0.0 0.00 0.00 0.00 94 1010.5
20191016091006 78 213 0.0 0.0 0.00 0.00 0.00 94 1010.5
20191016090452 78 213 0.0 0.0 0.00 0.00 0.00 95 1010.3
20191016090122 77 213 0.0 0.0 0.00 0.00 0.00 95 1011.1
20191016085958 78 213 0.0 0.0 0.00 0.00 0.00 95 1010.2
20191016085445 78 213 0.0 0.0 0.00 0.00 0.00 95 1010.2
20191016084954 78 213 0.0 0.0 0.00 0.00 0.00 94 1010.0
20191016084442 78 213 0.0 0.0 0.00 0.00 0.00 94 1010.1
20191016083938 78 213 0.0 0.0 0.00 0.00 0.00 94 1010.2
20191016083431 78 213 0.0 0.0 0.00 0.00 0.00 94 1010.2
20191016083227 77 213 0.0 0.0 0.00 0.00 0.00 94 1011.1
20191016082931 78 213 0.0 0.0 0.00 0.00 0.00 94 1010.2
20191016082433 78 213 0.0 0.0 0.00 0.00 0.00 95 1010.3
20191016081918 78 213 0.0 2.0 0.00 0.00 0.00 94 1010.3
20191016081548 77 213 0.0 2.0 0.00 0.00 0.00 94 1011.2
20191016081409 78 213 0.0 2.0 0.00 0.00 0.00 94 1010.4
20191016080908 78 211 0.0 2.0 0.00 0.00 0.00 94 1010.3
20191016080407 78 211 0.0 4.0 0.00 0.00 0.00 94 1010.3
20191016080252 77 211 0.0 4.0 0.00 0.00 0.00 94 1011.3
20191016075909 78 211 0.0 4.0 0.00 0.00 0.00 94 1010.4
20191016075402 78 180 0.0 0.0 0.00 0.00 0.00 95 1010.4
20191016074904 78 180 0.0 0.0 0.00 0.00 0.00 94 1010.5
20191016074634 77 180 0.0 0.0 0.00 0.00 0.00 94 1011.4
20191016074348 78 180 0.0 0.0 0.00 0.00 0.00 94 1010.5
20191016073839 78 180 0.0 3.0 0.00 0.00 0.00 94 1010.5
20191016073348 78 180 0.0 3.0 0.00 0.00 0.00 94 1010.4
20191016072832 78 180 0.0 3.0 0.00 0.00 0.00 94 1010.4
20191016072337 78 180 0.0 3.0 0.00 0.00 0.00 94 1010.5
20191016071810 78 178 0.0 0.0 0.00 0.00 0.00 94 1010.5
20191016071625 77 178 0.0 0.0 0.00 0.00 0.00 94 1011.5
20191016071250 78 178 0.0 2.0 0.00 0.00 0.00 94 1010.6
20191016070749 78 178 1.0 3.0 0.00 0.00 0.00 94 1010.5
20191016070258 78 178 2.0 3.0 0.00 0.00 0.00 94 1010.4
20191016070022 77 178 1.0 3.0 0.00 0.00 0.00 94 1011.4
20191016065744 78 178 1.0 3.0 0.00 0.00 0.00 94 1010.5
20191016065252 78 178 0.0 3.0 0.00 0.00 0.00 94 1010.5
20191016064742 78 178 0.0 0.0 0.00 0.00 0.00 94 1010.5
20191016064642 77 178 0.0 0.0 0.00 0.00 0.00 94 1011.3
20191016064248 78 178 0.0 0.0 0.00 0.00 0.00 94 1010.3
20191016063725 78 178 0.0 0.0 0.00 0.00 0.00 94 1010.4
20191016063223 78 178 0.0 0.0 0.00 0.00 0.00 93 1010.3
20191016063042 77 178 0.0 0.0 0.00 0.00 0.00 93 1011.2
20191016062732 78 178 0.0 0.0 0.00 0.00 0.00 93 1010.3
20191016062214 78 178 0.0 0.0 0.00 0.00 0.00 93 1010.5
20191016061705 78 178 0.0 0.0 0.00 0.00 0.00 93 1010.5
20191016061206 78 178 0.0 0.0 0.00 0.00 0.00 93 1010.6
20191016060704 78 178 0.0 0.0 0.00 0.00 0.00 93 1010.6
20191016060207 78 178 0.0 0.0 0.00 0.00 0.00 93 1010.6
20191016060052 78 178 0.0 0.0 0.00 0.00 0.00 93 1011.5
20191016055639 78 178 0.0 0.0 0.00 0.00 0.00 92 1010.7
20191016055137 78 178 0.0 0.0 0.00 0.00 0.00 92 1010.5
20191016054635 78 178 0.0 0.0 0.00 0.00 0.00 92 1010.6
20191016054501 78 178 0.0 0.0 0.00 0.00 0.00 92 1011.5
20191016054135 78 178 0.0 0.0 0.00 0.00 0.00 92 1010.8
20191016053641 79 178 0.0 0.0 0.00 0.00 0.00 92 1010.9
20191016053109 79 178 0.0 0.0 0.00 0.00 0.00 92 1011.0
20191016053103 78 178 0.0 0.0 0.00 0.00 0.00 92 1011.9
20191016052609 79 178 0.0 0.0 0.00 0.00 0.00 92 1011.1
20191016052109 79 178 0.0 0.0 0.00 0.00 0.00 92 1011.1
20191016051649 78 178 0.0 0.0 0.00 0.00 0.00 92 1012.1
20191016051600 79 178 0.0 0.0 0.00 0.00 0.00 92 1011.2
20191016051057 79 178 0.0 0.0 0.00 0.00 0.00 92 1011.1
20191016050558 79 178 0.0 0.0 0.00 0.00 0.00 91 1011.1
20191016050038 79 178 0.0 0.0 0.00 0.00 0.00 91 1011.2
20191016050011 79 178 0.0 0.0 0.00 0.00 0.00 91 1012.1
20191016045535 79 178 0.0 0.0 0.00 0.00 0.00 91 1011.1
20191016045043 79 178 0.0 3.0 0.00 0.00 0.00 91 1011.1
20191016044607 79 178 0.0 3.0 0.00 0.00 0.00 91 1012.0
20191016044520 79 178 0.0 3.0 0.00 0.00 0.00 91 1011.1
20191016044033 79 178 0.0 2.0 0.00 0.00 0.00 91 1011.1
20191016043507 79 178 0.0 0.0 0.00 0.00 0.00 91 1011.1
20191016043149 79 178 0.0 0.0 0.00 0.00 0.00 91 1012.0
20191016043015 79 178 0.0 0.0 0.00 0.00 0.00 91 1011.1
20191016042507 79 178 0.0 0.0 0.00 0.00 0.00 91 1011.0
20191016042015 80 178 0.0 0.0 0.00 0.00 0.00 90 1010.9
20191016041520 79 178 0.0 4.0 0.00 0.00 0.00 90 1011.7
20191016041500 80 178 0.0 4.0 0.00 0.00 0.00 90 1010.8
20191016041005 80 178 1.0 4.0 0.00 0.00 0.00 90 1010.7
20191016040444 80 178 1.0 4.0 0.00 0.00 0.00 90 1010.6
20191016040128 79 178 1.0 4.0 0.00 0.00 0.00 90 1011.4
20191016035948 80 178 1.0 5.0 0.00 0.00 0.00 90 1010.5
20191016035439 80 178 1.0 5.0 0.00 0.00 0.00 90 1010.6
20191016034936 80 176 1.0 6.0 0.00 0.00 0.00 90 1010.4
20191016034622 79 171 0.0 6.0 0.00 0.00 0.00 90 1011.2
20191016034441 80 171 2.0 6.0 0.00 0.00 0.00 89 1010.3
20191016033949 80 171 2.0 6.0 0.00 0.00 0.00 89 1010.2
20191016033421 80 157 2.0 5.0 0.00 0.00 0.00 89 1010.1
20191016033110 80 163 1.0 5.0 0.00 0.00 0.00 89 1010.9
20191016032914 80 178 2.0 5.0 0.00 0.00 0.00 88 1010.0
20191016032419 80 160 1.0 4.0 0.00 0.00 0.00 88 1010.0
20191016031904 80 163 2.0 5.0 0.00 0.00 0.00 88 1010.0
20191016031722 80 165 1.0 5.0 0.00 0.00 0.00 88 1010.8
20191016031418 80 166 2.0 5.0 0.00 0.00 0.00 88 1009.9
20191016030840 80 174 2.0 7.0 0.00 0.00 0.00 87 1009.7
20191016030341 80 176 3.0 7.0 0.00 0.00 0.00 87 1009.4
20191016030049 80 159 2.0 5.0 0.00 0.00 0.00 87 1010.2
20191016025841 81 169 3.0 6.0 0.00 0.00 0.00 87 1009.4
20191016025338 81 154 2.0 6.0 0.00 0.00 0.00 86 1009.4
20191016024853 81 159 2.0 5.0 0.00 0.00 0.00 86 1009.5
20191016024338 81 150 2.0 5.0 0.00 0.00 0.00 85 1009.5
20191016023845 81 153 2.0 5.0 0.00 0.00 0.00 85 1009.5
20191016023336 81 144 3.0 6.0 0.00 0.00 0.00 84 1009.6
20191016023157 81 169 3.0 6.0 0.00 0.00 0.00 84 1010.5
20191016022841 81 159 2.0 6.0 0.00 0.00 0.00 84 1009.6
20191016022323 82 163 2.0 6.0 0.00 0.00 0.00 84 1009.6
20191016021803 82 164 2.0 6.0 0.00 0.00 0.00 83 1009.7
20191016021312 82 159 2.0 7.0 0.00 0.00 0.00 83 1009.7
20191016020756 82 194 2.0 7.0 0.00 0.00 0.00 82 1009.6
20191016020301 82 175 2.0 6.0 0.00 0.00 0.00 82 1009.6
20191016020152 82 201 2.0 6.0 0.00 0.00 0.00 82 1010.5
20191016015749 82 156 2.0 5.0 0.00 0.00 0.00 82 1009.6
20191016015243 82 161 2.0 5.0 0.00 0.00 0.00 82 1009.5
20191016014749 82 174 2.0 4.0 0.00 0.00 0.00 82 1009.6
20191016014518 82 176 1.0 4.0 0.00 0.00 0.00 82 1010.4
20191016014238 83 175 1.0 4.0 0.00 0.00 0.00 82 1009.5
20191016013744 83 178 1.0 5.0 0.00 0.00 0.00 82 1009.6
20191016013225 83 178 2.0 5.0 0.00 0.00 0.00 81 1009.5
20191016013209 83 153 1.0 4.0 0.00 0.00 0.00 81 1010.4
20191016012725 83 155 3.0 6.0 0.00 0.00 0.00 80 1009.6
20191016012227 83 165 3.0 6.0 0.00 0.00 0.00 80 1009.4
20191016011655 83 161 3.0 6.0 0.00 0.00 0.00 79 1009.3
20191016011522 83 165 2.0 6.0 0.00 0.00 0.00 79 1010.2
20191016011153 84 157 3.0 9.0 0.00 0.00 0.00 79 1009.2
20191016010652 84 165 3.0 9.0 0.00 0.00 0.00 78 1009.1
20191016010152 84 174 3.0 8.0 0.00 0.00 0.00 77 1009.0
20191016005651 84 160 3.0 8.0 0.00 0.00 0.00 76 1008.9
20191016005150 84 163 3.0 7.0 0.00 0.00 0.00 76 1008.8
20191016004657 85 161 3.0 5.0 0.00 0.00 0.00 75 1008.7
20191016004534 84 161 2.0 5.0 0.00 0.00 0.00 75 1009.7
20191016004152 85 170 3.0 5.0 0.00 0.00 0.00 74 1008.8
20191016003650 85 166 2.0 5.0 0.00 0.00 0.00 75 1008.7
20191016003142 85 161 2.0 5.0 0.00 0.00 0.00 75 1008.7
20191016003016 85 161 2.0 5.0 0.00 0.00 0.00 74 1009.5
20191016002636 85 160 2.0 5.0 0.00 0.00 0.00 74 1008.7
20191016002139 85 194 2.0 5.0 0.00 0.00 0.00 73 1008.6
20191016001629 86 196 3.0 7.0 0.00 0.00 0.00 72 1008.5
20191016001609 85 197 2.0 6.0 0.00 0.00 0.00 72 1009.3
20191016001133 86 140 3.0 7.0 0.00 0.00 0.00 72 1008.3
20191016000616 86 199 3.0 7.0 0.00 0.00 0.00 71 1008.2
20191016000139 86 199 3.0 7.0 0.00 0.00 0.00 71 1008.9
20191016000123 86 199 3.0 7.0 0.00 0.00 0.00 71 1008.0
20191015235604 87 192 3.0 5.0 0.00 0.00 0.00 71 1008.0
20191015235108 87 186 3.0 7.0 0.00 0.00 0.00 71 1008.0
20191015234556 87 201 3.0 7.0 0.00 0.00 0.00 70 1007.9
20191015234058 87 145 2.0 5.0 0.00 0.00 0.00 70 1008.0
20191015233542 88 146 2.0 5.0 0.00 0.00 0.00 69 1007.8
20191015233137 87 191 2.0 4.0 0.00 0.00 0.00 69 1008.7
20191015233037 88 191 2.0 4.0 0.00 0.00 0.00 69 1007.8
20191015232537 88 196 1.0 4.0 0.00 0.00 0.00 69 1007.9
20191015232034 87 199 1.0 4.0 0.00 0.00 0.00 70 1007.9
20191015231545 87 199 2.0 4.0 0.00 0.00 0.00 71 1007.9
20191015231511 87 199 1.0 4.0 0.00 0.00 0.00 71 1008.8
20191015231010 87 199 2.0 4.0 0.00 0.00 0.00 72 1007.9
20191015230508 87 199 3.0 6.0 0.00 0.00 0.00 71 1008.0
20191015230146 88 199 3.0 7.0 0.00 0.00 0.00 69 1008.9
20191015230017 88 199 4.0 7.0 0.00 0.00 0.00 69 1008.0
20191015225511 89 198 4.0 7.0 0.00 0.00 0.00 67 1008.0
20191015225014 89 188 3.0 6.0 0.00 0.00 0.00 69 1007.9
20191015224523 89 157 2.0 7.0 0.00 0.00 0.00 68 1008.8
20191015224459 89 157 2.0 7.0 0.00 0.00 0.00 68 1007.9
20191015224005 89 196 3.0 7.0 0.00 0.00 0.00 68 1007.9
20191015223445 89 170 5.0 9.0 0.00 0.00 0.00 66 1007.9
20191015223212 89 198 4.0 9.0 0.00 0.00 0.00 64 1008.9
20191015222942 89 198 5.0 9.0 0.00 0.00 0.00 65 1008.0
20191015222441 90 191 3.0 9.0 0.00 0.00 0.00 63 1007.9
20191015221925 90 154 3.0 7.0 0.00 0.00 0.00 63 1007.8
20191015221543 90 187 2.0 5.0 0.00 0.00 0.00 62 1008.8
20191015221419 90 185 3.0 7.0 0.00 0.00 0.00 62 1008.0
20191015220919 90 180 3.0 7.0 0.00 0.00 0.00 61 1008.0
20191015220414 91 168 2.0 7.0 0.00 0.00 0.00 62 1008.0
20191015215925 91 163 3.0 7.0 0.00 0.00 0.00 63 1008.1
20191015215359 91 156 3.0 7.0 0.00 0.00 0.00 62 1008.0
20191015214858 92 211 4.0 9.0 0.00 0.00 0.00 61 1008.0
20191015214606 91 213 2.0 9.0 0.00 0.00 0.00 64 1008.9
20191015214401 91 214 5.0 10.0 0.00 0.00 0.00 61 1008.1
20191015213855 91 161 5.0 10.0 0.00 0.00 0.00 60 1008.2
20191015213400 92 194 4.0 8.0 0.00 0.00 0.00 59 1008.1
20191015213007 91 156 4.0 9.0 0.00 0.00 0.00 59 1009.0
20191015212857 92 159 5.0 10.0 0.00 0.00 0.00 58 1008.2
20191015212357 92 209 5.0 11.0 0.00 0.00 0.00 58 1008.2
20191015211853 93 161 5.0 11.0 0.00 0.00 0.00 58 1008.3
20191015211611 92 206 6.0 11.0 0.00 0.00 0.00 57 1009.2
20191015211357 93 175 5.0 11.0 0.00 0.00 0.00 60 1008.3
20191015210849 92 218 6.0 11.0 0.00 0.00 0.00 58 1008.3
20191015210402 93 196 4.0 10.0 0.00 0.00 0.00 59 1008.3
20191015210014 92 172 4.0 9.0 0.00 0.00 0.00 58 1009.1
20191015205846 92 165 5.0 9.0 0.00 0.00 0.00 58 1008.3
20191015205325 92 222 5.0 11.0 0.00 0.00 0.00 57 1008.4
20191015204835 92 202 6.0 11.0 0.00 0.00 0.00 57 1008.5
20191015204627 92 183 3.0 11.0 0.00 0.00 0.00 57 1009.3
20191015204308 92 216 7.0 11.0 0.00 0.00 0.00 56 1008.5
20191015203757 92 212 6.0 11.0 0.00 0.00 0.00 57 1008.6
20191015203236 93 207 5.0 10.0 0.00 0.00 0.00 58 1008.7
20191015203059 92 181 4.0 10.0 0.00 0.00 0.00 59 1009.5
20191015202747 92 200 6.0 13.0 0.00 0.00 0.00 56 1008.7
20191015202216 92 199 5.0 13.0 0.00 0.00 0.00 58 1008.8
20191015201650 93 205 4.0 9.0 0.00 0.00 0.00 58 1008.9
20191015201541 92 134 2.0 9.0 0.00 0.00 0.00 61 1009.7
20191015201141 93 150 4.0 9.0 0.00 0.00 0.00 58 1008.9
20191015200642 93 155 4.0 9.0 0.00 0.00 0.00 59 1009.0
20191015200149 93 148 4.0 8.0 0.00 0.00 0.00 58 1009.1
20191015200026 92 167 4.0 8.0 0.00 0.00 0.00 59 1010.1
20191015195634 92 212 4.0 8.0 0.00 0.00 0.00 61 1009.2
20191015195115 92 220 4.0 8.0 0.00 0.00 0.00 60 1009.3
20191015194551 91 198 5.0 7.0 0.00 0.00 0.00 59 1009.4
20191015194539 91 198 4.0 7.0 0.00 0.00 0.00 59 1010.3
20191015194030 91 211 5.0 10.0 0.00 0.00 0.00 60 1009.6
20191015193526 92 196 5.0 10.0 0.00 0.00 0.00 60 1009.6
20191015193140 91 205 4.0 9.0 0.00 0.00 0.00 59 1010.6
20191015193028 92 205 5.0 13.0 0.00 0.00 0.00 59 1009.7
20191015192540 92 150 5.0 13.0 0.00 0.00 0.00 60 1009.8
20191015192012 92 217 5.0 11.0 0.00 0.00 0.00 60 1009.9
20191015191543 91 232 6.0 11.0 0.00 0.00 0.00 60 1010.9
20191015191507 91 237 4.0 11.0 0.00 0.00 0.00 59 1010.0
20191015191006 91 201 4.0 10.0 0.00 0.00 0.00 63 1010.2
20191015190511 90 232 6.0 13.0 0.00 0.00 0.00 63 1010.3
20191015190106 90 240 6.0 13.0 0.00 0.00 0.00 60 1011.2
20191015185948 90 235 6.0 13.0 0.00 0.00 0.00 60 1010.3
20191015185430 90 200 5.0 8.0 0.00 0.00 0.00 63 1010.4
20191015184859 91 195 5.0 8.0 0.00 0.00 0.00 61 1010.4
20191015184542 90 192 4.0 9.0 0.00 0.00 0.00 65 1011.4
20191015184336 90 192 5.0 9.0 0.00 0.00 0.00 63 1010.6
20191015183833 90 193 5.0 9.0 0.00 0.00 0.00 64 1010.7
20191015183332 89 196 5.0 9.0 0.00 0.00 0.00 64 1010.7
20191015183059 89 166 4.0 9.0 0.00 0.00 0.00 64 1011.7
20191015182833 89 173 6.0 11.0 0.00 0.00 0.00 65 1010.7
20191015182327 89 205 5.0 11.0 0.00 0.00 0.00 63 1010.9
20191015181807 89 235 5.0 10.0 0.00 0.00 0.00 65 1011.0
20191015181540 88 251 4.0 10.0 0.00 0.00 0.00 66 1011.9
20191015181238 89 225 6.0 10.0 0.00 0.00 0.00 64 1011.0
20191015180728 89 238 5.0 11.0 0.00 0.00 0.00 64 1011.1
20191015180211 90 164 6.0 11.0 0.00 0.00 0.00 66 1011.2
20191015180123 89 151 5.0 11.0 0.00 0.00 0.00 66 1012.1
20191015175650 89 225 6.0 10.0 0.00 0.00 0.00 66 1011.2
20191015175137 89 239 5.0 10.0 0.00 0.00 0.00 66 1011.4
20191015174648 88 232 3.0 8.0 0.00 0.00 0.00 68 1012.3
20191015174611 88 232 5.0 8.0 0.00 0.00 0.00 68 1011.4
20191015174049 88 241 6.0 11.0 0.00 0.00 0.00 67 1011.5
20191015173548 88 216 6.0 11.0 0.00 0.00 0.00 67 1011.6
20191015173106 88 213 6.0 9.0 0.00 0.00 0.00 67 1012.5
20191015173053 88 213 6.0 10.0 0.00 0.00 0.00 67 1011.6
20191015172523 88 221 6.0 10.0 0.00 0.00 0.00 68 1011.6
20191015172011 87 223 5.0 8.0 0.00 0.00 0.00 69 1011.6
20191015171529 87 243 5.0 8.0 0.00 0.00 0.00 72 1012.6
20191015171510 87 245 5.0 9.0 0.00 0.00 0.00 72 1011.7
20191015171011 87 200 5.0 9.0 0.00 0.00 0.00 74 1011.7
20191015170520 87 242 6.0 10.0 0.00 0.00 0.00 73 1011.8
20191015170045 87 241 6.0 10.0 0.00 0.00 0.00 75 1012.6
20191015165952 87 232 6.0 10.0 0.00 0.00 0.00 74 1011.7
20191015165440 87 230 7.0 11.0 0.00 0.00 0.00 73 1011.7
20191015164919 86 205 7.0 11.0 0.00 0.00 0.00 77 1011.8
20191015164706 85 217 6.0 9.0 0.00 0.00 0.00 78 1012.8
20191015164353 85 231 6.0 9.0 0.00 0.00 0.00 77 1011.9
20191015163847 86 217 6.0 9.0 0.00 0.00 0.00 78 1012.0
20191015163349 86 229 5.0 10.0 0.00 0.00 0.00 76 1012.0
20191015163119 86 235 6.0 9.0 0.00 0.00 0.00 77 1013.0
20191015162857 87 224 5.0 10.0 0.00 0.00 0.00 78 1012.1
20191015162336 86 213 5.0 9.0 0.00 0.00 0.00 80 1012.1
20191015161816 86 219 6.0 10.0 0.00 0.00 0.00 80 1012.1
20191015161605 85 223 5.0 10.0 0.00 0.00 0.00 81 1012.9
20191015161245 86 223 6.0 10.0 0.00 0.00 0.00 79 1012.0
20191015160755 86 200 5.0 10.0 0.00 0.00 0.00 79 1012.0
20191015160226 85 213 5.0 10.0 0.00 0.00 0.00 82 1012.0
20191015160157 85 248 5.0 10.0 0.00 0.00 0.00 83 1012.9
20191015155710 85 232 6.0 10.0 0.00 0.00 0.00 84 1012.1
20191015155212 85 245 6.0 11.0 0.00 0.00 0.00 84 1012.1
20191015154710 85 243 6.0 11.0 0.00 0.00 0.00 83 1012.2
20191015154528 85 221 6.0 11.0 0.00 0.00 0.00 84 1013.1
20191015154213 85 213 5.0 10.0 0.00 0.00 0.00 83 1012.3
20191015153715 85 224 5.0 10.0 0.00 0.00 0.00 84 1012.3
20191015153207 84 159 6.0 10.0 0.00 0.00 0.00 85 1012.3
20191015153056 84 203 6.0 10.0 0.00 0.00 0.00 86 1013.3
20191015152708 84 209 6.0 10.0 0.00 0.00 0.00 87 1012.5
20191015152212 83 203 5.0 10.0 0.00 0.00 0.00 87 1012.5
20191015151653 84 200 5.0 9.0 0.00 0.00 0.00 87 1012.5
20191015151521 83 200 4.0 9.0 0.00 0.00 0.00 88 1013.3
20191015151138 83 201 5.0 7.0 0.00 0.00 0.00 89 1012.5
20191015150641 83 213 5.0 7.0 0.00 0.00 0.00 89 1012.6
20191015150143 83 206 5.0 9.0 0.00 0.00 0.00 89 1012.6
20191015150015 82 213 4.0 9.0 0.00 0.00 0.00 89 1013.4
20191015145625 83 189 5.0 8.0 0.00 0.00 0.00 89 1012.6
20191015145102 83 198 4.0 8.0 0.00 0.00 0.00 91 1012.7
20191015144539 82 200 4.0 8.0 0.00 0.00 0.00 92 1012.6
20191015144516 82 200 2.0 8.0 0.00 0.00 0.00 92 1013.5
20191015144011 82 194 4.0 8.0 0.00 0.00 0.00 91 1012.6
20191015143456 82 205 3.0 7.0 0.00 0.00 0.00 92 1012.6
20191015143016 81 134 2.0 5.0 0.00 0.00 0.00 93 1013.4
20191015142935 82 169 2.0 5.0 0.00 0.00 0.00 93 1012.5
20191015142403 82 167 3.0 7.0 0.00 0.00 0.00 93 1012.4
20191015141912 81 190 3.0 7.0 0.00 0.00 0.00 94 1012.3
20191015141554 81 185 2.0 6.0 0.00 0.00 0.00 94 1013.3
20191015141344 81 159 3.0 6.0 0.00 0.00 0.00 95 1012.4
20191015140845 80 190 3.0 6.0 0.00 0.00 0.00 95 1012.3
20191015140350 80 172 2.0 6.0 0.00 0.00 0.00 96 1012.2
20191015140008 79 173 2.0 6.0 0.00 0.00 0.00 96 1013.1
20191015135833 80 161 3.0 6.0 0.00 0.00 0.00 96 1012.2
20191015135332 79 160 2.0 5.0 0.00 0.00 0.00 97 1012.2
20191015134833 79 138 2.0 4.0 0.00 0.00 0.00 97 1012.1
20191015134622 79 138 1.0 4.0 0.00 0.00 0.00 97 1013.0
20191015134312 79 138 1.0 4.0 0.00 0.00 0.00 97 1012.0
20191015133806 79 138 1.0 3.0 0.00 0.00 0.00 97 1012.1
20191015133310 79 138 1.0 3.0 0.00 0.00 0.00 98 1012.2
20191015133122 78 138 0.0 3.0 0.00 0.00 0.00 98 1013.0
20191015132804 79 138 1.0 3.0 0.00 0.00 0.00 98 1012.1
20191015132310 78 138 0.0 3.0 0.00 0.00 0.00 98 1012.0
20191015131742 78 138 0.0 3.0 0.00 0.00 0.00 98 1012.0
20191015131503 78 138 0.0 2.0 0.00 0.00 0.00 98 1012.9
20191015131240 78 138 0.0 1.0 0.00 0.00 0.00 98 1012.1
20191015130747 78 138 0.0 0.0 0.00 0.00 0.00 98 1012.1
20191015130239 78 138 0.0 0.0 0.00 0.00 0.00 98 1012.0
20191015125722 78 138 0.0 0.0 0.00 0.00 0.00 97 1012.1
20191015125219 78 138 0.0 1.0 0.00 0.00 0.00 97 1012.0
20191015124724 78 138 0.0 0.0 0.00 0.00 0.00 97 1012.0
20191015124617 77 138 0.0 1.0 0.00 0.00 0.00 97 1012.9
20191015124158 78 138 0.0 2.0 0.00 0.00 0.00 97 1012.0
20191015123659 78 138 0.0 2.0 0.00 0.00 0.00 97 1011.9
20191015123203 78 138 0.0 2.0 0.00 0.00 0.00 97 1011.9
20191015123043 78 138 1.0 2.0 0.00 0.00 0.00 97 1012.8